ADDS METAR Data INFO
IDs: Format: Raw Decoded Include TAF

Data at: 1408 UTC 24 Feb 2018

KTEB 241351Z VRB03KT 10SM CLR 11/06 A3016 RMK AO2 SLP213 T01060061 $
KTEB 241251Z 29006KT 9SM CLR 09/06 A3016 RMK AO2 SLP213 T00890061 $
KTEB 241202Z 24004KT 7SM SCT017 06/05 A3017 RMK AO2 T00610050 $
KTEB 241151Z VRB04KT 7SM BKN017 07/05 A3017 RMK AO2 SLP216 70016 T00670050 10067 20050 51014 $
KTEB 241051Z 21003KT 6SM BR CLR 05/04 A3016 RMK AO2 SLP213 T00500039 $
KTEB 240951Z 00000KT 6SM BR CLR 06/04 A3014 RMK AO2 SLP207 T00560044 $
KTEB 240851Z 16003KT 6SM BR CLR 06/04 A3013 RMK AO2 SLP201 T00610044 58013 $
KTEB 240751Z 22007KT 6SM BR BKN014 06/04 A3015 RMK AO2 SLP208 T00560044 $
KTEB 240733Z 24005KT 6SM BR BKN015 06/04 A3016 RMK AO2 T00610044 $
KTEB 240651Z 26005KT 6SM BR FEW044 SCT055 07/04 A3016 RMK AO2 SLP212 T00670044 $
KTEB 240551Z 22007KT 5SM BR SCT042 OVC050 07/04 A3016 RMK AO2 SLP214 T00670044 10067 20044 56020 $
KTEB 240532Z VRB05KT 5SM BR SCT011 OVC047 06/04 A3017 RMK AO2 T00610044 $
KTEB 240451Z 21005KT 5SM BR BKN010 OVC050 06/04 A3017 RMK AO2 SLP215 T00560044 400610028 $
KTEB 240351Z 25005KT 3SM BR OVC006 05/04 A3019 RMK AO2 SFC VIS 4 SLP224 T00500039 $
KTEB 240315Z 23005KT 2 1/2SM BR OVC006 05/04 A3021 RMK AO2 SFC VIS 3 T00500039 $
KTEB 240251Z 23008KT 2 1/2SM BR OVC004 05/04 A3022 RMK AO2 SFC VIS 3 SLP234 T00500039 58030 $
KTEB 240217Z VRB04KT 2 1/2SM BR OVC004 04/04 A3025 RMK AO2 SFC VIS 3 T00440039 $
KTEB 240151Z 22006KT 2 1/2SM BR OVC007 04/04 A3027 RMK AO2 SFC VIS 3 SLP248 T00440039 $
KTEB 240127Z 22006KT 2 1/2SM BR OVC007 04/04 A3027 RMK AO2 SFC VIS 3 T00440039 $
KTEB 240104Z 22006KT 2 1/2SM BR OVC004 04/04 A3027 RMK AO2 SFC VIS 3 T00440039 $
KTEB 240051Z 24006KT 1SM R06/P6000FT BR OVC004 04/04 A3028 RMK AO2 SFC VIS 1 1/2 CIG 003V007 SLP252 T00440039 $
KTEB 232351Z VRB03KT 1SM R06/P6000FT BR OVC004 04/04 A3031 RMK AO2 SFC VIS 1 1/2 RAE33 CIG 003V007 SLP264 P0006 60015 T00440039 10056 20033 58026 $
KTEB 232251Z 32003KT 1SM R06/P6000FT -RA BR OVC004 04/03 A3036 RMK AO2 SFC VIS 1 1/2 SLP280 P0004 T00440033
KTEB 232151Z 10005KT 1SM R06/6000VP6000FT -RA BR OVC003 04/03 A3037 RMK AO2 SLP283 P0002 T00440028
KTEB 232104Z VRB04KT 1 1/4SM -RA BR OVC004 04/03 A3040 RMK AO2 SFC VIS 1 1/2 P0000 T00390028
KTEB 232051Z 07004KT 1 1/4SM -RA BR OVC005 04/03 A3039 RMK AO2 SFC VIS 1 1/2 SLP290 P0001 60003 T00390028 56030
KTEB 232049Z 07004KT 1 1/4SM -RA BR OVC005 03/03 A3039 RMK AO2 SFC VIS 1 1/2 P0001
KTEB 231951Z 08005KT 2SM -RA BR OVC004 03/02 A3043 RMK AO2 SLP303 P0001 T00330022
KTEB 231949Z 08004KT 2SM -RA BR OVC004 03/03 A3043 RMK AO2 P0001
KTEB 231935Z 07006KT 1 1/2SM -RA BR OVC004 03/02 A3044 RMK AO2 P0001 T00330022
KTEB 231851Z 05004KT 1 1/2SM -RA OVC008 03/02 A3048 RMK AO2 DZE27RAB27 SLP320 P0001 T00330022
KTEB 231830Z 08005KT 1 3/4SM -RA OVC008 03/02 A3048 RMK AO2 DZE27RAB27 P0000 T00330017
KTEB 231810Z 08005KT 4SM DZ BR OVC008 03/02 A3050 RMK AO2 P0000 T00330017
KTEB 231758Z 06005KT 4SM DZ BR OVC010 03/02 A3050 RMK AO2 CIG 007V013 P0000 T00330022
KTEB 231751Z 07006KT 4SM DZ BR OVC007 03/02 A3050 RMK AO2 RAE1652DZB1652 SLP328 P0000 60001 T00330017 10039 20028 58042
KTEB 231735Z 08004KT 4SM DZ BR OVC007 04/02 A3052 RMK AO2 RAE1652DZB1652 P0000 T00390017
KTEB 231651Z 09004KT 5SM -RA BR OVC011 03/01 A3056 RMK AO2 DZE33RAB33 PRESFR SLP347 P0000 T00330011
KTEB 231551Z 08005KT 4SM DZ BR OVC013 03/01 A3060 RMK AO2 RAE20DZB20 SLP360 P0000 T00280011
KTEB 231451Z 06008KT 4SM -RA BR OVC010 03/01 A3062 RMK AO2 DZE1352RAB20 SLP370 P0001 60001 T00280011 58003
KTEB 231412Z 09007KT 10SM OVC014 03/00 A3063 RMK AO2 DZE1352 P0000 T00280000 $
KTEB 231351Z 09006KT 10SM -DZ OVC015 03/00 A3064 RMK AO2 RAB07E33DZB33 SLP377 P0000 T00280000 $
KTEB 231251Z 07007KT 10SM OVC016 03/M01 A3064 RMK AO2 SLP375 T00281006 $
KTEB 231151Z 08006G14KT 10SM OVC016 03/00 A3063 RMK AO2 SLP373 70028 T00280000 10028 20028 55006 $
KTEB 231120Z VRB05KT 10SM OVC015 03/00 A3064 RMK AO2 T00280000 $
KTEB 231051Z 06007KT 10SM BKN014 OVC041 03/00 A3063 RMK AO2 SLP373 T00280000 $
KTEB 230951Z 05009KT 10SM OVC013 03/00 A3065 RMK AO2 SLP378 T00280000 $
KTEB 230851Z 06005KT 10SM OVC012 03/00 A3065 RMK AO2 SLP379 T00280000 55006 $
KTEB 230751Z 07005KT 10SM OVC013 03/00 A3065 RMK AO2 SLP377 T00280000 $
KTEB 230651Z 07008KT 10SM OVC013 03/01 A3067 RMK AO2 SLP386 T00280006 $
KTEB 230613Z 06004KT 10SM SCT010 OVC015 03/01 A3067 RMK AO2 T00280006 $
KTEB 230551Z 06008G16KT 10SM OVC011 03/01 A3067 RMK AO2 SLP386 T00280006 10039 20028 51010 $
KTEB 230451Z 05007KT 10SM OVC014 03/01 A3066 RMK AO2 SLP382 T00330011 401440033 $
KTEB 230351Z 03006KT 10SM BKN014 OVC055 03/01 A3066 RMK AO2 SLP383 T00330011 $
KTEB 230329Z 05005KT 10SM BKN014 OVC055 04/01 A3067 RMK AO2 T00390011 $
KTEB 230251Z 00000KT 10SM BKN018 OVC060 03/02 A3064 RMK AO2 SLP376 T00330017 53003 $